Rea, Pennsylvania
Current Conditions -  °F | °C
As of 1:35 AM on Monday 26 Jan 2015 (Local Time) from KAFJ Reporting Station
Overcast Overcast  
Wind Chill: 30°   Ceiling: 500
Heat Index: 30°   Visibility: 5mi
Dew Point: 28°   Wind: 0mph
Humidity: 93%   Direction: NA
Pressure: 29.73"   Gusts: NA
Location:  40.2708°N, 80.4485°W
Report Text: KAFJ 260635Z AUTO 00000KT 5SM OVC005 M01/M02 A2973 RMK AO1 P0001
Loading
Personal Weather Stations






























Interactive Weather Map New forecast layout! Learn more

10-Day Weather Forecast

Advertisements
Track Severe Weather on mobile